Time;durP1;ratioP1;P1;durP2;ratioP2;P2;SDS_P1;SDS_P2;PMS_P1;PMS_P2;Temp;Humidity;BMP_temperature;BMP_pressure;BME280_temperature;BME280_humidity;BME280_pressure;Samples;Min_cycle;Max_cycle;Signal;HPM_P1;HPM_P2
2021/08/19 00:01:20;;;;;;;4.12;2.22;;;;;;;19.91;68.42;98921.77;4591546;77;28481;-79
2021/08/19 00:07:21;;;;;;;6.62;2.52;;;;;;;19.52;72.66;98921.50;4591367;77;28521;-78
2021/08/19 00:13:22;;;;;;;5.08;1.82;;;;;;;19.63;71.37;98917.53;4588269;77;28504;-79
2021/08/19 00:19:23;;;;;;;5.30;2.40;;;;;;;19.63;73.22;98922.98;4587641;77;28536;-79
2021/08/19 00:25:25;;;;;;;5.90;2.58;;;;;;;19.64;74.18;98912.89;4589876;77;28480;-81
2021/08/19 00:31:26;;;;;;;4.40;2.60;;;;;;;19.49;74.91;98909.27;4590512;77;28463;-81
2021/08/19 00:37:27;;;;;;;4.37;2.58;;;;;;;19.43;75.14;98909.09;4591165;76;28481;-79
2021/08/19 00:43:29;;;;;;;8.35;3.33;;;;;;;19.20;76.63;98906.09;4590288;77;28500;-80
2021/08/19 00:49:31;;;;;;;5.72;3.02;;;;;;;19.00;82.11;98906.30;4585187;77;28451;-79
2021/08/19 00:55:32;;;;;;;4.87;2.58;;;;;;;19.03;82.99;98915.31;4598655;77;28563;-80
2021/08/19 01:01:35;;;;;;;5.80;3.00;;;;;;;19.16;80.45;98920.05;4599154;77;28510;-80
2021/08/19 01:07:36;;;;;;;6.80;3.12;;;;;;;19.46;77.74;98914.48;4599361;77;28484;-80
2021/08/19 01:13:39;;;;;;;5.62;3.00;;;;;;;19.43;78.48;98916.44;4598861;77;28428;-80
2021/08/19 01:19:45;;;;;;;7.28;3.20;;;;;;;19.51;77.28;98931.58;4597588;77;28529;-79
2021/08/19 01:25:47;;;;;;;5.43;2.87;;;;;;;19.22;79.10;98922.16;4599395;77;28553;-79
2021/08/19 01:32:01;;;;;;;5.90;2.85;;;;;;;19.12;82.05;98926.37;4599078;77;28504;-80
2021/08/19 01:38:02;;;;;;;6.22;3.30;;;;;;;19.05;84.89;98918.55;4598791;77;28507;-80
2021/08/19 01:44:04;;;;;;;4.25;2.58;;;;;;;18.93;84.21;98911.56;4598559;77;28492;-79
2021/08/19 01:50:06;;;;;;;5.65;2.87;;;;;;;18.79;86.88;98913.34;4598682;77;28470;-80
2021/08/19 01:56:08;;;;;;;4.72;2.50;;;;;;;18.77;88.83;98911.47;4597735;77;28575;-79
2021/08/19 02:02:09;;;;;;;7.20;2.58;;;;;;;18.70;86.36;98910.45;4599130;77;28505;-79
2021/08/19 02:08:10;;;;;;;4.45;2.50;;;;;;;18.60;89.59;98918.19;4596707;77;28545;-80
2021/08/19 02:14:12;;;;;;;6.35;3.00;;;;;;;18.85;86.83;98913.56;4595476;77;28553;-79
2021/08/19 02:20:14;;;;;;;6.33;3.05;;;;;;;18.85;88.54;98916.28;4596371;77;28486;-79
2021/08/19 02:26:15;;;;;;;5.80;2.42;;;;;;;18.68;90.94;98912.09;4595908;77;28567;-80
2021/08/19 02:32:16;;;;;;;5.75;2.52;;;;;;;18.56;94.40;98907.59;4594719;76;28554;-79
2021/08/19 02:38:18;;;;;;;5.25;2.67;;;;;;;18.66;92.21;98913.50;4595246;77;28922;-79
2021/08/19 02:44:19;;;;;;;6.58;2.25;;;;;;;18.65;90.13;98910.52;4599316;77;28511;-81
2021/08/19 02:50:20;;;;;;;7.65;2.85;;;;;;;18.66;90.67;98921.09;4593719;77;28459;-81
2021/08/19 02:56:23;;;;;;;6.90;2.83;;;;;;;18.76;87.47;98916.66;4476846;77;28440;-80
2021/08/19 03:02:25;;;;;;;5.55;2.77;;;;;;;18.53;92.95;98919.89;4557192;77;28445;-80
2021/08/19 03:08:26;;;;;;;3.67;2.50;;;;;;;18.53;92.80;98917.16;4419872;77;28530;-79
2021/08/19 03:14:27;;;;;;;5.45;2.70;;;;;;;18.52;90.30;98916.88;4412235;80;28444;-79
2021/08/19 03:20:29;;;;;;;4.50;2.80;;;;;;;18.44;91.93;98915.33;4467876;78;28452;-79
2021/08/19 03:26:32;;;;;;;5.47;2.35;;;;;;;18.37;91.98;98913.75;4520387;78;28436;-80
2021/08/19 03:32:36;;;;;;;4.22;2.75;;;;;;;18.24;95.55;98914.41;4451410;79;28520;-79
2021/08/19 03:38:36;;;;;;;4.60;2.45;;;;;;;18.29;95.10;98917.11;4430544;79;28510;-79
2021/08/19 03:44:38;;;;;;;5.37;2.55;;;;;;;18.13;95.97;98926.48;4447837;80;28514;-79
2021/08/19 03:50:39;;;;;;;4.00;2.30;;;;;;;18.22;95.49;98923.42;4453011;79;28457;-80
2021/08/19 03:56:40;;;;;;;7.95;2.80;;;;;;;18.32;94.05;98921.14;4477091;79;28518;-79
2021/08/19 04:02:44;;;;;;;5.30;2.20;;;;;;;18.21;96.24;98919.87;4475651;78;28502;-80
2021/08/19 04:08:45;;;;;;;4.47;2.50;;;;;;;18.25;98.25;98916.86;4411345;80;28486;-80
2021/08/19 04:14:47;;;;;;;3.12;2.08;;;;;;;18.39;96.23;98922.46;4411639;79;28487;-78
2021/08/19 04:20:48;;;;;;;4.75;2.45;;;;;;;18.38;97.36;98919.48;4409586;80;28526;-79
2021/08/19 04:26:50;;;;;;;5.28;2.52;;;;;;;18.67;94.67;98913.76;4424638;79;28448;-80
2021/08/19 04:32:51;;;;;;;5.97;2.87;;;;;;;18.98;93.51;98916.15;4485041;79;28471;-78
2021/08/19 04:38:54;;;;;;;5.25;2.83;;;;;;;19.00;93.81;98922.14;4485992;79;28486;-79
2021/08/19 04:44:56;;;;;;;6.03;2.60;;;;;;;19.17;93.06;98916.22;4440902;79;28628;-79
2021/08/19 04:50:57;;;;;;;5.35;2.55;;;;;;;19.01;97.61;98921.61;4490092;77;28578;-80
2021/08/19 04:56:58;;;;;;;5.37;2.15;;;;;;;19.35;96.94;98919.28;4590184;77;28516;-81
2021/08/19 05:03:00;;;;;;;5.10;2.25;;;;;;;19.52;96.33;98922.86;4569718;77;28483;-81
2021/08/19 05:09:04;;;;;;;4.62;1.90;;;;;;;20.13;89.33;98932.64;4543404;77;28542;-82
2021/08/19 05:15:06;;;;;;;3.55;1.70;;;;;;;20.46;86.95;98918.98;4573035;77;28452;-81
2021/08/19 05:21:08;;;;;;;2.45;1.50;;;;;;;20.46;88.37;98917.63;4555504;77;28479;-82
2021/08/19 05:27:09;;;;;;;2.87;1.67;;;;;;;20.87;85.21;98917.44;4501976;79;28553;-79
2021/08/19 05:33:10;;;;;;;3.45;1.70;;;;;;;21.09;83.94;98920.05;4502672;79;28502;-83
2021/08/19 05:39:12;;;;;;;3.08;1.62;;;;;;;21.29;82.43;98907.05;4503508;79;28459;-81
2021/08/19 05:45:13;;;;;;;3.25;1.60;;;;;;;21.57;79.83;98905.09;4505251;79;28475;-84
2021/08/19 05:51:14;;;;;;;2.77;1.80;;;;;;;21.92;77.86;98912.00;4559585;76;28500;-80
2021/08/19 05:57:16;;;;;;;2.58;1.60;;;;;;;22.08;77.96;98909.16;4563578;76;28553;-84
2021/08/19 06:03:22;;;;;;;2.15;1.35;;;;;;;21.86;81.31;98922.25;4562820;76;28515;-82
2021/08/19 06:09:23;;;;;;;4.08;1.57;;;;;;;22.17;79.31;98916.59;4574973;76;28494;-83
2021/08/19 06:15:25;;;;;;;3.75;1.60;;;;;;;22.75;76.97;98912.69;4481228;77;28504;-83
2021/08/19 06:21:27;;;;;;;2.22;1.60;;;;;;;23.05;73.97;98917.08;4394799;79;28500;-84
2021/08/19 06:27:28;;;;;;;2.50;1.70;;;;;;;23.07;71.64;98912.90;4474495;78;28553;-83
2021/08/19 06:33:30;;;;;;;3.98;1.90;;;;;;;23.26;71.88;98915.91;4574207;76;28421;-82
2021/08/19 06:39:31;;;;;;;4.47;1.90;;;;;;;23.45;69.83;98913.48;4578614;76;28542;-82
2021/08/19 06:45:32;;;;;;;3.95;1.72;;;;;;;23.66;69.56;98915.05;4559991;76;28634;-84
2021/08/19 06:51:34;;;;;;;3.00;1.75;;;;;;;23.58;69.70;98914.47;4538740;76;28508;-82
2021/08/19 06:57:35;;;;;;;4.17;2.17;;;;;;;23.76;71.02;98911.98;4568441;76;28516;-83
2021/08/19 07:03:36;;;;;;;3.87;1.95;;;;;;;23.89;68.74;98907.44;4575322;76;28456;-83
2021/08/19 07:09:38;;;;;;;4.83;2.42;;;;;;;24.03;68.04;98909.23;4545002;76;28449;-82
2021/08/19 07:15:41;;;;;;;6.15;2.70;;;;;;;24.27;66.77;98911.49;4563323;76;28928;-84
2021/08/19 07:21:45;;;;;;;4.35;2.08;;;;;;;24.81;64.82;98908.03;4517164;76;28458;-83
2021/08/19 07:27:46;;;;;;;4.12;1.90;;;;;;;24.96;64.10;98912.98;4550718;77;28502;-84
2021/08/19 07:33:47;;;;;;;3.60;1.40;;;;;;;25.01;64.41;98899.62;4566953;76;28506;-83
2021/08/19 07:39:48;;;;;;;2.42;1.60;;;;;;;24.83;62.12;98894.75;4559634;76;28435;-83
2021/08/19 07:45:50;;;;;;;2.58;1.50;;;;;;;25.35;60.79;98892.30;4560859;77;28488;-82
2021/08/19 07:51:52;;;;;;;1.87;1.25;;;;;;;25.67;59.11;98894.67;4553758;77;28521;-82
2021/08/19 07:57:54;;;;;;;1.65;1.42;;;;;;;25.71;56.17;98888.74;4569629;76;28453;-83
2021/08/19 08:03:55;;;;;;;1.60;1.50;;;;;;;25.96;57.10;98888.28;4558589;76;28459;-82
2021/08/19 08:09:57;;;;;;;2.10;1.60;;;;;;;26.11;56.39;98891.53;4567738;77;28599;-83
2021/08/19 08:16:00;;;;;;;2.10;1.40;;;;;;;26.27;54.37;98895.30;4563063;76;28516;-83
2021/08/19 08:22:01;;;;;;;1.95;1.50;;;;;;;26.41;53.34;98892.23;4560266;76;28536;-84
2021/08/19 08:28:09;;;;;;;4.12;1.77;;;;;;;26.57;51.33;98897.89;4578037;76;28463;-84
2021/08/19 08:34:09;;;;;;;1.90;1.40;;;;;;;26.81;52.20;98904.57;4550015;76;28496;-85
2021/08/19 08:40:16;;;;;;;2.17;1.47;;;;;;;27.10;51.50;98909.66;4551412;77;28492;-86
2021/08/19 08:46:18;;;;;;;2.17;1.62;;;;;;;26.84;49.21;98911.36;4554080;76;28452;-85
2021/08/19 08:52:20;;;;;;;3.87;1.60;;;;;;;26.86;49.17;98912.60;4561305;76;28463;-87
2021/08/19 08:58:21;;;;;;;2.33;1.37;;;;;;;27.39;50.30;98911.13;4550583;76;28491;-81
2021/08/19 09:04:23;;;;;;;2.20;1.52;;;;;;;27.38;49.52;98908.92;4566608;76;28424;-81
2021/08/19 09:10:29;;;;;;;1.85;1.35;;;;;;;27.59;49.36;98907.20;4562469;76;28545;-81
2021/08/19 09:16:34;;;;;;;2.83;1.47;;;;;;;27.75;48.52;98901.19;4573708;76;28600;-81
2021/08/19 09:22:59;;;;;;;2.25;1.40;;;;;;;27.96;46.98;98896.02;4543247;77;28514;-82
2021/08/19 09:29:27;;;;;;;3.37;1.55;;;;;;;27.97;48.72;98894.88;4563330;76;28530;-81
2021/08/19 09:35:30;;;;;;;1.95;1.75;;;;;;;27.83;47.37;98900.20;4562396;76;28542;-82
2021/08/19 09:41:32;;;;;;;3.08;1.60;;;;;;;27.95;47.31;98895.22;4555398;76;28463;-83
2021/08/19 09:47:34;;;;;;;3.27;1.60;;;;;;;27.98;46.85;98895.10;4566838;76;28528;-84
2021/08/19 09:53:48;;;;;;;3.80;1.60;;;;;;;27.75;46.55;98901.75;4523374;77;28483;-88
2021/08/19 09:59:50;;;;;;;2.15;1.40;;;;;;;28.02;45.25;98901.52;4444612;77;28447;-88
2021/08/19 10:05:53;;;;;;;2.98;1.35;;;;;;;28.53;45.63;98893.21;4412235;78;28416;-88
2021/08/19 10:11:56;;;;;;;1.20;1.10;;;;;;;28.69;45.82;98896.55;4437429;78;28475;-87
2021/08/19 10:17:59;;;;;;;1.35;1.07;;;;;;;28.80;44.77;98890.13;4427878;78;28448;-88
2021/08/19 10:24:03;;;;;;;1.98;1.10;;;;;;;28.57;42.09;98895.48;4401827;78;28505;-84
2021/08/19 10:30:08;;;;;;;1.57;1.07;;;;;;;29.02;42.16;98891.27;4409562;78;28568;-86
2021/08/19 10:36:30;;;;;;;1.80;1.22;;;;;;;29.19;41.64;98899.75;4413317;78;28466;-86
2021/08/19 10:42:31;;;;;;;1.47;1.10;;;;;;;28.99;42.12;98898.31;4415525;79;28486;-87
2021/08/19 10:48:46;;;;;;;1.82;1.22;;;;;;;28.71;43.15;98901.95;4427816;79;28445;-86
2021/08/19 10:54:50;;;;;;;1.30;1.20;;;;;;;28.31;42.51;98891.84;4424750;78;28510;-85
2021/08/19 11:01:00;;;;;;;1.45;1.30;;;;;;;28.35;42.52;98885.84;4444260;78;28507;-85
2021/08/19 11:07:05;;;;;;;1.95;1.47;;;;;;;28.33;42.47;98872.97;4439902;78;28505;-85
2021/08/19 11:13:14;;;;;;;1.55;0.95;;;;;;;28.15;41.86;98869.11;4434420;78;28543;-85
2021/08/19 11:19:23;;;;;;;2.12;1.02;;;;;;;28.27;40.19;98866.08;4430593;79;28479;-86
2021/08/19 11:25:25;;;;;;;1.25;1.02;;;;;;;28.63;40.55;98867.79;4446321;78;28549;-85
2021/08/19 11:31:42;;;;;;;1.50;1.05;;;;;;;28.86;40.15;98869.16;4434763;78;28472;-86
2021/08/19 11:37:40;;;;;;;3.15;1.15;;;;;;;28.53;39.48;98865.56;4399832;79;28482;-85
2021/08/19 11:43:43;;;;;;;2.70;1.20;;;;;;;28.81;39.79;98875.73;4440131;78;28464;-86
2021/08/19 11:49:44;;;;;;;2.67;1.20;;;;;;;28.81;38.91;98873.75;4451158;79;28464;-85
2021/08/19 11:55:45;;;;;;;1.35;1.20;;;;;;;28.81;38.67;98864.66;4427281;79;28467;-85
2021/08/19 12:01:52;;;;;;;1.77;0.85;;;;;;;29.05;39.49;98859.53;4467068;78;28487;-82
2021/08/19 12:07:53;;;;;;;1.62;1.05;;;;;;;28.90;38.75;98848.71;4428222;78;28448;-82
2021/08/19 12:13:58;;;;;;;1.25;0.95;;;;;;;29.15;38.37;98851.80;4456487;78;28507;-80
2021/08/19 12:20:16;;;;;;;2.50;1.10;;;;;;;29.39;37.45;98854.12;4445042;79;28902;-83
2021/08/19 12:26:23;;;;;;;1.25;1.00;;;;;;;29.25;36.84;98862.31;4437280;78;28459;-81
2021/08/19 12:32:34;;;;;;;1.85;1.10;;;;;;;29.01;37.22;98863.38;4449352;78;28566;-83
2021/08/19 12:38:36;;;;;;;3.02;0.95;;;;;;;28.72;37.22;98872.34;4446000;78;28524;-82
2021/08/19 12:44:38;;;;;;;3.17;1.20;;;;;;;28.75;38.03;98872.44;4461438;78;28493;-82
2021/08/19 12:50:40;;;;;;;1.42;1.20;;;;;;;28.77;38.48;98867.91;4450307;78;28496;-82
2021/08/19 12:56:46;;;;;;;2.52;1.20;;;;;;;28.70;39.32;98872.69;4478631;78;28455;-81
2021/08/19 13:02:49;;;;;;;2.90;1.30;;;;;;;28.81;39.83;98869.59;4483336;78;28534;-82
2021/08/19 13:08:50;;;;;;;1.85;1.22;;;;;;;28.75;40.29;98863.32;4406178;79;28448;-81
2021/08/19 13:14:55;;;;;;;2.17;1.10;;;;;;;29.05;39.63;98855.95;4489593;78;28555;-82
2021/08/19 13:20:56;;;;;;;2.87;1.10;;;;;;;29.06;39.89;98858.36;4475829;77;28529;-82
2021/08/19 13:26:57;;;;;;;1.87;1.20;;;;;;;28.79;39.53;98860.05;4405773;79;28513;-81
2021/08/19 13:32:59;;;;;;;2.08;1.27;;;;;;;28.49;39.86;98861.91;4504310;77;28490;-82
2021/08/19 13:39:00;;;;;;;2.15;1.00;;;;;;;28.21;40.25;98854.48;4496072;78;28433;-82
2021/08/19 13:45:01;;;;;;;2.22;1.00;;;;;;;28.66;40.07;98860.16;4494691;77;28575;-82
2021/08/19 13:51:03;;;;;;;1.75;1.15;;;;;;;28.74;38.63;98871.40;4494961;77;28461;-82
2021/08/19 13:57:05;;;;;;;3.62;1.40;;;;;;;27.99;38.60;98870.46;4520881;77;28487;-81
2021/08/19 14:03:06;;;;;;;0.90;0.78;;;;;;;28.32;38.26;98873.53;4533920;77;28437;-81
2021/08/19 14:09:08;;;;;;;3.10;0.90;;;;;;;27.81;38.38;98875.50;4532559;77;28473;-81
2021/08/19 14:15:10;;;;;;;2.80;1.02;;;;;;;28.29;37.88;98870.67;4540417;77;28421;-82
2021/08/19 14:21:11;;;;;;;1.92;0.90;;;;;;;28.37;38.22;98873.84;4546376;77;28441;-82
2021/08/19 14:27:13;;;;;;;2.15;0.98;;;;;;;28.56;36.72;98882.02;4550741;77;28498;-80
2021/08/19 14:33:14;;;;;;;1.77;1.00;;;;;;;28.13;37.80;98877.52;4513246;77;28473;-82
2021/08/19 14:39:15;;;;;;;1.17;0.93;;;;;;;27.97;37.98;98876.92;4521732;77;28531;-81
2021/08/19 14:45:17;;;;;;;2.27;1.00;;;;;;;28.21;38.15;98872.45;4528712;76;28557;-82
2021/08/19 14:51:20;;;;;;;2.42;0.90;;;;;;;28.31;37.71;98880.78;4521758;76;28453;-84
2021/08/19 14:57:24;;;;;;;2.00;1.00;;;;;;;28.67;38.00;98881.71;4508898;76;28465;-83
2021/08/19 15:03:25;;;;;;;2.85;1.00;;;;;;;28.94;38.35;98882.78;4550197;77;28970;-85
2021/08/19 15:09:26;;;;;;;3.37;1.30;;;;;;;28.97;37.86;98883.22;4568332;77;28461;-83
2021/08/19 15:15:28;;;;;;;2.80;1.30;;;;;;;28.07;37.95;98879.18;4552778;76;28543;-83
2021/08/19 15:21:33;;;;;;;1.75;1.00;;;;;;;28.08;38.62;98882.16;4563941;76;28441;-83
2021/08/19 15:27:34;;;;;;;2.40;1.32;;;;;;;27.91;38.96;98881.08;4567460;76;28508;-87
2021/08/19 15:33:36;;;;;;;3.17;1.45;;;;;;;27.88;39.58;98888.70;4564870;77;28526;-82
2021/08/19 15:39:38;;;;;;;3.65;1.57;;;;;;;27.46;40.56;98887.88;4541702;77;28467;-82
2021/08/19 15:45:40;;;;;;;1.70;1.47;;;;;;;27.45;40.69;98896.50;4569548;76;28511;-84
2021/08/19 15:51:41;;;;;;;4.35;1.55;;;;;;;27.63;41.17;98892.91;4572446;76;28506;-84
2021/08/19 15:57:42;;;;;;;4.62;1.50;;;;;;;27.42;41.94;98902.13;4549260;76;28551;-84
2021/08/19 16:03:44;;;;;;;2.98;1.70;;;;;;;27.44;42.76;98905.94;4567599;76;28522;-83
2021/08/19 16:09:45;;;;;;;2.47;1.92;;;;;;;27.27;43.82;98909.17;4562509;76;28469;-83
2021/08/19 16:15:47;;;;;;;2.02;1.47;;;;;;;27.42;44.26;98911.23;4458001;78;28501;-84
2021/08/19 16:21:50;;;;;;;2.52;1.45;;;;;;;27.26;44.94;98907.56;4366897;79;28468;-83
2021/08/19 16:27:51;;;;;;;3.47;1.80;;;;;;;27.41;46.16;98915.15;4548134;76;28460;-81
2021/08/19 16:33:58;;;;;;;3.70;1.70;;;;;;;27.39;46.49;98913.31;4570353;76;28441;-81
2021/08/19 16:40:01;;;;;;;4.62;1.57;;;;;;;27.32;46.94;98915.03;4561152;76;28460;-81
2021/08/19 16:46:04;;;;;;;3.65;1.80;;;;;;;27.41;48.66;98921.23;4563673;76;28459;-82
2021/08/19 16:52:06;;;;;;;2.87;1.90;;;;;;;27.25;48.61;98921.14;4555159;77;28488;-86
2021/08/19 16:58:08;;;;;;;3.17;1.70;;;;;;;27.10;51.98;98923.45;4563656;76;28455;-81
2021/08/19 17:04:09;;;;;;;5.55;1.70;;;;;;;27.07;52.19;98923.34;4565971;76;28503;-82
2021/08/19 17:10:12;;;;;;;3.75;2.02;;;;;;;26.85;54.97;98927.54;4552270;76;28520;-81
2021/08/19 17:16:14;;;;;;;2.30;2.00;;;;;;;26.72;55.30;98927.30;4556402;77;28467;-82
2021/08/19 17:22:16;;;;;;;2.92;1.70;;;;;;;26.45;57.66;98930.36;4560326;76;28587;-81
2021/08/19 17:28:19;;;;;;;3.70;1.85;;;;;;;26.38;57.99;98925.18;4559770;76;28535;-81
2021/08/19 17:34:21;;;;;;;4.85;2.22;;;;;;;26.03;61.55;98925.73;4560171;76;28546;-79
2021/08/19 17:40:22;;;;;;;4.12;1.95;;;;;;;25.86;63.63;98926.66;4559025;77;28596;-81
2021/08/19 17:46:24;;;;;;;2.80;2.05;;;;;;;25.53;66.15;98931.53;4563722;76;28496;-81
2021/08/19 17:52:25;;;;;;;3.85;2.25;;;;;;;25.37;69.29;98936.78;4458997;77;28452;-81
2021/08/19 17:58:27;;;;;;;3.33;2.30;;;;;;;24.98;69.42;98929.95;4533536;77;28453;-79
2021/08/19 18:04:28;;;;;;;6.22;2.50;;;;;;;24.89;71.74;98937.43;4580718;76;28492;-79
2021/08/19 18:10:30;;;;;;;5.97;2.50;;;;;;;24.78;73.26;98938.35;4555463;76;28451;-81
2021/08/19 18:16:31;;;;;;;5.10;2.33;;;;;;;24.54;75.98;98945.19;4566414;76;28526;-81
2021/08/19 18:22:34;;;;;;;5.08;2.25;;;;;;;24.62;74.43;98958.66;4554725;76;28554;-81
2021/08/19 18:28:35;;;;;;;6.40;2.45;;;;;;;24.51;74.58;98959.01;4389517;79;28926;-80
2021/08/19 18:34:36;;;;;;;4.00;2.40;;;;;;;24.42;76.15;98959.63;4490379;78;28451;-80
2021/08/19 18:40:38;;;;;;;5.67;2.52;;;;;;;24.27;77.29;98958.73;4471195;78;28550;-79
2021/08/19 18:46:39;;;;;;;4.35;2.70;;;;;;;24.17;77.05;98956.56;4374080;79;28488;-78
2021/08/19 18:52:42;;;;;;;4.00;2.50;;;;;;;24.12;79.40;98967.73;4401159;79;28466;-81
2021/08/19 18:58:46;;;;;;;6.35;2.90;;;;;;;24.23;78.16;98973.69;4382695;79;28452;-81
2021/08/19 19:04:55;;;;;;;5.47;3.00;;;;;;;24.15;78.94;98986.85;4451521;78;28551;-81
2021/08/19 19:10:57;;;;;;;5.30;3.12;;;;;;;24.18;79.18;98983.48;4438907;78;28503;-81
2021/08/19 19:16:58;;;;;;;4.33;3.15;;;;;;;24.14;79.33;98991.55;4444561;79;28529;-81
2021/08/19 19:23:00;;;;;;;5.35;3.40;;;;;;;24.09;79.98;98996.64;4367950;80;28502;-82
2021/08/19 19:29:03;;;;;;;7.95;3.95;;;;;;;24.08;79.18;98999.14;4373758;80;28532;-81
2021/08/19 19:35:05;;;;;;;7.90;3.80;;;;;;;24.09;80.26;98994.44;4348474;80;28473;-82
2021/08/19 19:41:07;;;;;;;7.60;4.22;;;;;;;24.16;80.93;98997.52;4376254;79;28532;-81
2021/08/19 19:47:08;;;;;;;6.33;3.65;;;;;;;24.24;79.89;98994.52;4365689;79;28538;-83
2021/08/19 19:53:10;;;;;;;12.15;6.62;;;;;;;24.17;80.95;98995.59;4374170;79;28544;-80
2021/08/19 19:59:11;;;;;;;5.97;4.33;;;;;;;23.98;80.29;98993.12;4368934;79;28524;-82
2021/08/19 20:05:14;;;;;;;8.85;4.62;;;;;;;23.97;78.68;98992.88;4382289;79;28501;-81
2021/08/19 20:11:21;;;;;;;9.03;4.15;;;;;;;23.99;82.33;98990.06;4346901;79;28465;-83
2021/08/19 20:17:25;;;;;;;6.90;4.30;;;;;;;23.83;78.54;98996.59;4315331;80;28490;-82
2021/08/19 20:23:26;;;;;;;9.68;6.17;;;;;;;23.79;82.92;99003.28;4360185;80;28447;-83
2021/08/19 20:29:28;;;;;;;7.05;4.47;;;;;;;23.65;84.43;99005.37;4374791;79;28564;-82
2021/08/19 20:35:33;;;;;;;6.05;3.83;;;;;;;23.57;85.36;99006.94;4368713;79;28480;-81
2021/08/19 20:41:37;;;;;;;8.35;5.05;;;;;;;23.56;82.70;99010.81;4367038;79;28544;-80
2021/08/19 20:47:40;;;;;;;8.63;4.65;;;;;;;23.56;83.40;99016.88;4375031;79;28552;-84
2021/08/19 20:53:41;;;;;;;7.55;4.42;;;;;;;23.46;81.74;99009.19;4372503;80;28553;-83
2021/08/19 20:59:43;;;;;;;7.75;4.45;;;;;;;23.57;78.98;99011.64;4395044;80;28524;-84
2021/08/19 21:05:44;;;;;;;9.73;4.87;;;;;;;23.72;79.33;99016.66;4415057;80;28457;-83
2021/08/19 21:11:46;;;;;;;9.78;5.45;;;;;;;23.75;77.22;99015.22;4390067;80;28458;-84
2021/08/19 21:17:48;;;;;;;8.03;4.20;;;;;;;23.52;80.38;99022.98;4393004;80;28447;-83
2021/08/19 21:23:49;;;;;;;8.65;4.65;;;;;;;23.50;79.99;99026.62;4456304;78;28492;-84
2021/08/19 21:29:51;;;;;;;7.85;4.35;;;;;;;23.64;76.21;99025.70;4607744;76;28475;-84
2021/08/19 21:35:52;;;;;;;6.85;4.28;;;;;;;23.76;74.89;99027.81;4546151;77;28438;-82
2021/08/19 21:41:54;;;;;;;6.22;4.25;;;;;;;23.76;75.36;99036.88;4575912;76;28472;-83
2021/08/19 21:47:56;;;;;;;7.20;4.15;;;;;;;23.67;75.52;99043.69;4580931;76;28493;-83
2021/08/19 21:53:57;;;;;;;7.00;4.05;;;;;;;23.53;76.97;99041.09;4576308;76;28481;-83
2021/08/19 22:00:00;;;;;;;7.70;4.17;;;;;;;23.68;75.29;99048.63;4597517;77;28526;-83
2021/08/19 22:06:02;;;;;;;9.08;4.62;;;;;;;23.78;74.28;99058.48;4557237;77;28572;-83
2021/08/19 22:12:06;;;;;;;7.35;4.55;;;;;;;23.78;75.11;99057.12;4604896;77;28449;-82
2021/08/19 22:18:07;;;;;;;6.60;4.08;;;;;;;23.52;80.08;99066.09;4562110;76;28486;-81
2021/08/19 22:24:08;;;;;;;8.35;4.17;;;;;;;23.49;82.00;99069.48;4558573;77;28468;-82
2021/08/19 22:30:16;;;;;;;7.28;4.50;;;;;;;23.62;82.58;99079.52;4546424;77;28525;-82
2021/08/19 22:36:18;;;;;;;5.70;4.20;;;;;;;23.51;83.05;99074.08;4560287;77;28472;-83
2021/08/19 22:42:20;;;;;;;7.85;4.12;;;;;;;23.45;85.84;99080.82;4552679;76;28484;-84
2021/08/19 22:48:21;;;;;;;9.03;4.58;;;;;;;23.23;86.00;99075.61;4552519;76;28462;-83
2021/08/19 22:54:23;;;;;;;8.10;4.58;;;;;;;23.25;81.15;99084.33;4531501;77;28468;-82
2021/08/19 23:00:25;;;;;;;7.92;4.37;;;;;;;23.24;85.79;99095.06;4596911;76;28465;-83
2021/08/19 23:06:26;;;;;;;6.22;4.00;;;;;;;23.19;87.93;99091.88;4578164;76;28490;-83
2021/08/19 23:12:28;;;;;;;8.25;4.50;;;;;;;23.24;87.95;99093.14;4570791;76;28457;-81
2021/08/19 23:18:29;;;;;;;6.65;4.47;;;;;;;23.44;84.99;99094.30;4590036;77;28470;-84
2021/08/19 23:24:31;;;;;;;6.28;3.92;;;;;;;23.41;84.86;99092.20;4472556;78;28499;-83
2021/08/19 23:30:32;;;;;;;6.30;4.05;;;;;;;23.32;88.84;99090.77;4414163;79;28462;-83
2021/08/19 23:36:33;;;;;;;7.33;4.33;;;;;;;23.35;88.41;99086.04;4477422;79;28444;-83
2021/08/19 23:42:36;;;;;;;9.00;4.12;;;;;;;23.52;89.13;99094.33;4565971;76;28437;-84
2021/08/19 23:48:38;;;;;;;6.25;4.05;;;;;;;23.51;88.70;99088.59;4567137;76;28517;-83
2021/08/19 23:54:39;;;;;;;7.25;4.80;;;;;;;23.44;89.63;99096.48;4648923;76;28501;-83
